Kayford, West Virginia
Current Conditions -  °F | °C
As of 10:54 AM on Wednesday 22 Oct 2014 (Local Time) from KCRW Reporting Station
Overcast Overcast  
Wind Chill:   Ceiling: 1100
Heat Index:   Visibility: 10mi
Dew Point:   Wind: 5mph
Humidity: 86%   Direction: NA
Pressure: 30.2"   Gusts: NA
Location:  38.0912°N, 81.4436°W
Report Text: KCRW 221454Z VRB04KT 10SM OVC011 09/07 A3020 RMK AO2 SLP227 60000 T00890067 51013
Loading
Personal Weather Stations






























Interactive Weather Map
Tropical Storm Tracking
New forecast layout! Learn more

10-Day Weather Forecast

Advertisements
Track Severe Weather on mobile